San Pedro Sula, Honduras
Current Conditions -  °F | °C
As of 11:00 PM on Friday 24 Oct 2014 (Local Time) from MHLM Reporting Station
Scattered Clouds Scattered Clouds  
Wind Chill: 26°   Ceiling: Unl
Heat Index: 28°   Visibility: 6mi
Dew Point: 24°   Wind: 6mph
Humidity: 89%   Direction: 180°S
Pressure: 29.88"   Gusts: NA
Location:  15.47°N, 88.03°W
Report Text: MHLM 250500Z 18005KT 9999 FEW024CB SCT080 26/24 Q1012 A2989NOSIG
Loading
Personal Weather Stations






























Interactive Weather Map
Tropical Storm Tracking
New forecast layout! Learn more

10-Day Weather Forecast

Advertisements
Track Severe Weather on mobile